Time;durP1;ratioP1;P1;durP2;ratioP2;P2;SDS_P1;SDS_P2;PMS_P1;PMS_P2;Temp;Humidity;BMP_temperature;BMP_pressure;BME280_temperature;BME280_humidity;BME280_pressure;Samples;Min_cycle;Max_cycle;Signal;HPM_P1;HPM_P2
2023/03/02 00:02:12;;;;;;;142.97;56.57;;;;;;;-34.55;100.00;95276.44;5079172;23;20199;-61
2023/03/02 00:04:48;;;;;;;151.00;55.80;;;;;;;-34.62;100.00;95274.84;5088939;23;20202;-62
2023/03/02 00:07:18;;;;;;;148.70;55.73;;;;;;;-34.58;100.00;95273.19;5069083;23;20207;-61
2023/03/02 00:09:45;;;;;;;141.57;55.17;;;;;;;-34.76;100.00;95267.50;5077877;23;20206;-64
2023/03/02 00:12:12;;;;;;;143.37;53.50;;;;;;;-34.66;100.00;95274.06;5072246;23;20207;-62
2023/03/02 00:14:38;;;;;;;149.70;53.83;;;;;;;-34.67;100.00;95271.59;5076141;23;20307;-62
2023/03/02 00:17:06;;;;;;;145.93;55.00;;;;;;;-34.67;100.00;95264.19;5097777;23;20668;-62
2023/03/02 00:19:33;;;;;;;140.97;54.33;;;;;;;-34.71;100.00;95273.25;5061241;23;21415;-62
2023/03/02 00:21:59;;;;;;;143.97;54.03;;;;;;;-34.72;100.00;95264.19;5084729;23;20519;-62
2023/03/02 00:24:26;;;;;;;148.97;57.53;;;;;;;-34.78;100.00;95278.19;5074074;23;20200;-63
2023/03/02 00:26:53;;;;;;;154.37;58.03;;;;;;;-34.78;100.00;95268.31;5081106;23;21660;-63
2023/03/02 00:29:19;;;;;;;152.53;54.73;;;;;;;-34.85;100.00;95262.59;5083743;23;20199;-63
2023/03/02 00:31:46;;;;;;;144.13;56.50;;;;;;;-34.85;100.00;95260.97;5081823;23;22370;-63
2023/03/02 00:34:12;;;;;;;159.77;59.10;;;;;;;-34.87;100.00;95266.72;5093682;23;23285;-61
2023/03/02 00:36:39;;;;;;;146.13;56.17;;;;;;;-34.88;100.00;95262.59;5069561;23;20288;-62
2023/03/02 00:39:06;;;;;;;151.43;55.87;;;;;;;-34.92;100.00;95264.28;5084672;23;20210;-61
2023/03/02 00:41:33;;;;;;;135.63;54.57;;;;;;;-34.85;100.00;95262.59;5073886;23;20969;-62
2023/03/02 00:43:59;;;;;;;148.77;59.10;;;;;;;-34.91;100.00;95268.38;5090303;23;20203;-63
2023/03/02 00:46:27;;;;;;;161.87;60.40;;;;;;;-34.98;100.00;95265.94;5070297;23;20272;-65
2023/03/02 00:48:54;;;;;;;158.03;57.97;;;;;;;-34.97;100.00;95262.63;5067792;23;20287;-61
2023/03/02 00:51:21;;;;;;;150.47;57.70;;;;;;;-35.00;100.00;95257.72;5084061;23;20202;-63
2023/03/02 00:53:47;;;;;;;153.97;57.63;;;;;;;-35.02;100.00;95265.09;5097279;23;20268;-61
2023/03/02 00:56:14;;;;;;;146.07;56.67;;;;;;;-34.94;100.00;95258.53;5074490;23;20215;-63
2023/03/02 00:58:40;;;;;;;151.37;57.43;;;;;;;-35.04;100.00;95266.75;5083767;23;23876;-62
2023/03/02 01:01:09;;;;;;;160.13;59.33;;;;;;;-35.24;100.00;95259.44;5075263;23;22865;-61
2023/03/02 01:03:35;;;;;;;155.87;58.37;;;;;;;-35.15;100.00;95256.94;5072861;23;22641;-64
2023/03/02 01:06:03;;;;;;;157.87;57.27;;;;;;;-35.12;100.00;95259.41;5075827;23;22004;-60
2023/03/02 01:08:30;;;;;;;167.53;60.20;;;;;;;-35.23;100.00;95261.06;5078723;23;20271;-63
2023/03/02 01:11:00;;;;;;;152.50;58.47;;;;;;;-35.24;100.00;95261.88;5082208;23;20254;-65
2023/03/02 01:13:27;;;;;;;161.57;63.67;;;;;;;-35.30;100.00;95255.31;5075587;23;20212;-64
2023/03/02 01:16:01;;;;;;;152.57;57.13;;;;;;;-35.21;100.00;95254.47;5081210;23;21172;-63
2023/03/02 01:18:27;;;;;;;162.70;62.17;;;;;;;-35.13;100.00;95252.84;5086792;23;21235;-62
2023/03/02 01:21:02;;;;;;;153.73;60.97;;;;;;;-35.16;100.00;95242.97;5074833;23;20244;-63
2023/03/02 01:23:28;;;;;;;154.00;59.33;;;;;;;-35.07;100.00;95247.84;5076976;23;20209;-63
2023/03/02 01:25:55;;;;;;;153.60;59.03;;;;;;;-35.05;100.00;95248.66;5082036;23;20377;-63
2023/03/02 01:28:22;;;;;;;168.90;61.93;;;;;;;-35.28;100.00;95243.81;5077308;23;20202;-62
2023/03/02 01:30:49;;;;;;;160.23;60.43;;;;;;;-35.32;100.00;95238.88;5078718;23;20227;-61
2023/03/02 01:33:15;;;;;;;157.27;61.13;;;;;;;-35.31;100.00;95247.94;5082582;23;21383;-62
2023/03/02 01:35:45;;;;;;;155.40;60.67;;;;;;;-35.33;100.00;95234.78;5074138;23;20335;-61
2023/03/02 01:38:12;;;;;;;181.30;64.73;;;;;;;-35.30;100.00;95234.78;5074131;22;20385;-63
2023/03/02 01:40:39;;;;;;;160.10;59.03;;;;;;;-35.23;100.00;95228.19;5108087;22;20204;-62
2023/03/02 01:43:11;;;;;;;162.67;60.63;;;;;;;-35.19;100.00;95228.19;5104409;22;20210;-62
2023/03/02 01:46:02;;;;;;;152.87;59.23;;;;;;;-35.17;100.00;95221.63;5075764;22;21550;-62
2023/03/02 01:48:34;;;;;;;156.70;58.43;;;;;;;-35.15;100.00;95229.00;5062003;22;20211;-61
2023/03/02 01:51:01;;;;;;;170.23;60.23;;;;;;;-35.26;100.00;95222.44;5084532;22;20380;-61
2023/03/02 01:53:30;;;;;;;142.50;53.97;;;;;;;-35.11;100.00;95226.53;5081715;22;21228;-64
2023/03/02 01:55:57;;;;;;;129.80;49.60;;;;;;;-35.06;100.00;95222.38;5073739;22;20417;-64
2023/03/02 01:58:24;;;;;;;133.93;50.47;;;;;;;-35.00;100.00;95218.25;5092976;22;20258;-63
2023/03/02 02:00:51;;;;;;;133.07;48.47;;;;;;;-35.00;100.00;95223.19;5058999;22;20290;-62
2023/03/02 02:03:21;;;;;;;128.90;46.17;;;;;;;-34.89;100.00;95227.25;5074775;22;20203;-62
2023/03/02 02:05:57;;;;;;;127.07;45.47;;;;;;;-34.87;100.00;95227.25;5080817;22;20274;-63
2023/03/02 02:08:24;;;;;;;111.67;38.70;;;;;;;-34.76;100.00;95228.03;5084401;22;21556;-62
2023/03/02 02:10:51;;;;;;;115.40;36.53;;;;;;;-34.78;100.00;95231.31;5065165;22;20269;-65
2023/03/02 02:13:18;;;;;;;99.37;32.50;;;;;;;-34.74;100.00;95230.50;5088383;22;21415;-63
2023/03/02 02:15:45;;;;;;;100.37;33.07;;;;;;;-34.73;100.00;95232.97;5053815;22;20246;-63
2023/03/02 02:18:11;;;;;;;98.63;32.57;;;;;;;-34.62;100.00;95238.69;5077711;22;20263;-62
2023/03/02 02:20:46;;;;;;;100.13;33.83;;;;;;;-34.61;100.00;95241.97;5091920;22;21202;-63
2023/03/02 02:23:28;;;;;;;106.23;34.27;;;;;;;-34.67;100.00;95237.03;5082514;22;20203;-64
2023/03/02 02:26:01;;;;;;;105.40;28.63;;;;;;;-34.73;100.00;95220.63;5067549;22;20612;-62
2023/03/02 02:28:34;;;;;;;104.77;30.07;;;;;;;-34.70;100.00;95220.59;5057976;22;20346;-63
2023/03/02 02:31:13;;;;;;;105.17;28.10;;;;;;;-34.65;100.00;95223.88;5066666;22;21186;-64
2023/03/02 02:33:44;;;;;;;98.80;28.83;;;;;;;-34.53;100.00;95227.09;5082369;22;20209;-61
2023/03/02 02:36:18;;;;;;;102.73;31.13;;;;;;;-34.45;100.00;95222.94;5080562;22;21238;-63
2023/03/02 02:38:47;;;;;;;92.77;29.33;;;;;;;-34.46;100.00;95226.22;5066472;22;20215;-61
2023/03/02 02:41:19;;;;;;;95.33;29.93;;;;;;;-34.47;100.00;95214.72;5079858;22;20910;-61
2023/03/02 02:43:46;;;;;;;91.20;29.10;;;;;;;-34.35;100.00;95212.19;5090573;22;20218;-61
2023/03/02 02:46:13;;;;;;;93.67;30.57;;;;;;;-34.27;100.00;95208.00;5081903;22;21602;-62
2023/03/02 02:48:40;;;;;;;107.57;32.03;;;;;;;-34.29;100.00;95209.69;5075258;22;20271;-63
2023/03/02 02:51:08;;;;;;;101.27;32.23;;;;;;;-34.45;100.00;95206.47;5087544;22;20199;-63
2023/03/02 02:53:48;;;;;;;90.73;31.03;;;;;;;-34.30;100.00;95198.16;5090043;22;20199;-66
2023/03/02 02:56:16;;;;;;;101.83;31.80;;;;;;;-34.23;100.00;95202.22;5079960;22;20674;-61
2023/03/02 02:58:46;;;;;;;85.70;29.87;;;;;;;-34.18;100.00;95207.16;5086586;22;20211;-60
2023/03/02 03:01:14;;;;;;;98.37;32.00;;;;;;;-34.22;100.00;95201.44;5076371;22;20374;-64
2023/03/02 03:03:46;;;;;;;87.83;31.67;;;;;;;-34.13;100.00;95199.72;5058483;22;20211;-62
2023/03/02 03:06:16;;;;;;;98.60;32.20;;;;;;;-34.10;100.00;95202.16;5073306;22;20216;-64
2023/03/02 03:08:43;;;;;;;97.87;30.97;;;;;;;-34.07;100.00;95194.72;5114562;22;20825;-65
2023/03/02 03:11:12;;;;;;;90.10;32.27;;;;;;;-34.08;100.00;95193.09;5080010;22;23465;-62
2023/03/02 03:13:40;;;;;;;90.93;30.30;;;;;;;-34.01;100.00;95197.13;5064257;22;20428;-62
2023/03/02 03:16:09;;;;;;;84.97;30.43;;;;;;;-33.98;100.00;95202.06;5087753;22;20211;-63
2023/03/02 03:18:35;;;;;;;94.43;31.03;;;;;;;-34.03;100.00;95201.25;5078655;22;20317;-61
2023/03/02 03:21:02;;;;;;;90.47;32.10;;;;;;;-34.01;100.00;95199.59;5068821;22;20705;-62
2023/03/02 03:23:29;;;;;;;85.53;30.63;;;;;;;-33.93;100.00;95197.91;5076342;22;20374;-67
2023/03/02 03:25:56;;;;;;;82.17;30.07;;;;;;;-33.91;100.00;95191.31;5084579;22;20214;-61
2023/03/02 03:28:22;;;;;;;87.90;30.73;;;;;;;-33.84;100.00;95185.47;5079828;22;21713;-63
2023/03/02 03:30:49;;;;;;;93.17;30.77;;;;;;;-33.92;100.00;95188.84;5083622;22;20326;-65
2023/03/02 03:33:16;;;;;;;79.77;30.13;;;;;;;-33.86;100.00;95178.91;5087672;22;20559;-63
2023/03/02 03:35:42;;;;;;;78.40;28.67;;;;;;;-33.83;100.00;95184.63;5098215;22;20800;-61
2023/03/02 03:38:09;;;;;;;77.07;28.83;;;;;;;-33.75;100.00;95187.88;5092658;22;20272;-62
2023/03/02 03:40:35;;;;;;;74.97;28.27;;;;;;;-33.70;100.00;95184.53;5097860;22;20198;-64
2023/03/02 03:43:03;;;;;;;80.03;31.33;;;;;;;-33.64;100.00;95189.44;5105103;22;20244;-62
2023/03/02 03:45:29;;;;;;;80.50;29.23;;;;;;;-33.67;100.00;95184.53;5106936;22;20331;-64
2023/03/02 03:47:56;;;;;;;76.57;29.20;;;;;;;-33.61;100.00;95184.47;5107509;22;20218;-62
2023/03/02 03:50:23;;;;;;;80.77;30.50;;;;;;;-33.60;100.00;95193.53;5111263;22;20755;-62
2023/03/02 03:52:50;;;;;;;70.47;27.80;;;;;;;-33.51;100.00;95193.41;5086906;22;20207;-62
2023/03/02 03:55:16;;;;;;;76.70;28.80;;;;;;;-33.48;100.00;95193.38;5086480;22;21158;-63
2023/03/02 03:57:43;;;;;;;78.53;29.63;;;;;;;-33.45;100.00;95200.78;5088181;22;20337;-63
2023/03/02 04:00:13;;;;;;;75.10;28.07;;;;;;;-33.47;100.00;95195.03;5091379;22;20254;-60
2023/03/02 04:02:40;;;;;;;70.67;28.20;;;;;;;-33.41;100.00;95194.97;5105512;22;20346;-63
2023/03/02 04:05:08;;;;;;;74.67;26.93;;;;;;;-33.38;100.00;95194.13;5089968;22;20215;-62
2023/03/02 04:07:36;;;;;;;85.43;29.30;;;;;;;-33.42;100.00;95193.34;5093788;22;20443;-61
2023/03/02 04:10:04;;;;;;;71.53;26.70;;;;;;;-33.35;100.00;95189.16;5100128;22;20335;-62
2023/03/02 04:12:34;;;;;;;78.33;28.70;;;;;;;-33.43;100.00;95186.75;5087946;22;20488;-62
2023/03/02 04:15:01;;;;;;;69.97;27.63;;;;;;;-33.33;100.00;95185.00;5074846;22;20266;-62
2023/03/02 04:17:28;;;;;;;67.57;26.70;;;;;;;-33.26;100.00;95179.19;5092725;22;20365;-61
2023/03/02 04:19:54;;;;;;;64.93;26.13;;;;;;;-33.17;100.00;95186.50;5062218;22;20214;-61
2023/03/02 04:22:21;;;;;;;65.87;26.47;;;;;;;-33.21;100.00;95186.53;5092728;22;20203;-62
2023/03/02 04:24:48;;;;;;;67.20;27.50;;;;;;;-33.13;100.00;95184.81;5050601;23;20512;-63
2023/03/02 04:27:15;;;;;;;70.80;26.57;;;;;;;-33.18;100.00;95186.53;5078661;22;20895;-61
2023/03/02 04:29:43;;;;;;;70.50;28.30;;;;;;;-33.28;100.00;95192.38;5085131;23;20659;-63
2023/03/02 04:32:13;;;;;;;67.17;27.60;;;;;;;-33.40;100.00;95189.22;5095738;22;21335;-61
2023/03/02 04:34:40;;;;;;;65.20;27.63;;;;;;;-33.33;100.00;95185.84;5090316;22;20256;-62
2023/03/02 04:37:06;;;;;;;69.93;27.80;;;;;;;-33.35;100.00;95187.50;5108017;22;20718;-64
2023/03/02 04:39:33;;;;;;;65.10;26.80;;;;;;;-33.24;100.00;95186.56;5097982;22;20210;-64
2023/03/02 04:41:59;;;;;;;70.10;27.07;;;;;;;-33.26;100.00;95180.81;5110138;22;20210;-63
2023/03/02 04:44:26;;;;;;;67.97;27.47;;;;;;;-33.38;100.00;95182.56;5106028;22;21256;-62
2023/03/02 04:46:52;;;;;;;69.67;28.53;;;;;;;-33.24;100.00;95186.56;5118524;22;20207;-62
2023/03/02 04:49:19;;;;;;;60.57;26.40;;;;;;;-33.18;100.00;95182.38;5091984;22;25329;-63
2023/03/02 04:51:47;;;;;;;61.40;25.63;;;;;;;-33.20;100.00;95183.25;5093060;22;20266;-62
2023/03/02 04:54:20;;;;;;;60.97;26.30;;;;;;;-33.11;100.00;95180.69;5095996;22;20254;-63
2023/03/02 04:56:47;;;;;;;65.23;25.10;;;;;;;-33.16;100.00;95177.44;5085461;22;20218;-64
2023/03/02 04:59:19;;;;;;;59.47;25.10;;;;;;;-33.27;100.00;95179.19;5101778;22;20262;-63
2023/03/02 05:01:45;;;;;;;53.80;24.10;;;;;;;-33.30;100.00;95189.94;5091608;22;20319;-61
2023/03/02 05:04:12;;;;;;;63.00;25.53;;;;;;;-33.31;100.00;95191.59;5104384;22;21783;-62
2023/03/02 05:06:39;;;;;;;56.77;24.83;;;;;;;-33.26;100.00;95196.50;5092443;22;21417;-64
2023/03/02 05:09:06;;;;;;;62.53;25.23;;;;;;;-33.31;100.00;95191.59;5098462;22;22310;-62
2023/03/02 05:11:33;;;;;;;55.63;23.83;;;;;;;-33.35;100.00;95196.59;5110086;22;22230;-62
2023/03/02 05:14:02;;;;;;;56.97;24.33;;;;;;;-33.26;100.00;95191.56;5081894;22;20348;-62
2023/03/02 05:16:31;;;;;;;65.03;25.90;;;;;;;-33.35;100.00;95192.44;5101260;22;20622;-63
2023/03/02 05:19:00;;;;;;;56.83;23.50;;;;;;;-33.15;100.00;95201.31;5097712;22;21073;-63
2023/03/02 05:21:27;;;;;;;62.10;25.07;;;;;;;-33.16;100.00;95202.19;5093635;22;21255;-62
2023/03/02 05:23:53;;;;;;;60.23;24.33;;;;;;;-33.11;100.00;95210.38;5099407;22;20203;-61
2023/03/02 05:26:21;;;;;;;64.63;24.87;;;;;;;-33.04;100.00;95203.69;5088197;22;20203;-63
2023/03/02 05:28:47;;;;;;;61.87;25.60;;;;;;;-32.94;100.00;95206.00;5095598;22;20204;-65
2023/03/02 05:31:22;;;;;;;63.87;24.57;;;;;;;-32.93;100.00;95199.44;5087403;22;20218;-63
2023/03/02 05:33:48;;;;;;;62.20;25.40;;;;;;;-32.92;100.00;95211.78;5096232;22;20214;-62
2023/03/02 05:36:15;;;;;;;56.33;25.40;;;;;;;-32.84;100.00;95203.44;5128963;22;20282;-63
2023/03/02 05:38:45;;;;;;;55.90;24.43;;;;;;;-32.78;100.00;95209.16;5101066;22;20259;-64
2023/03/02 05:41:12;;;;;;;58.03;24.30;;;;;;;-32.92;100.00;95203.53;5107075;22;20263;-64
2023/03/02 05:43:38;;;;;;;57.70;24.23;;;;;;;-32.82;100.00;95212.50;5127076;22;20226;-63
2023/03/02 05:46:05;;;;;;;54.37;24.00;;;;;;;-32.80;100.00;95214.97;5117784;22;20645;-62
2023/03/02 05:48:32;;;;;;;63.17;23.93;;;;;;;-32.91;100.00;95208.47;5115800;22;20265;-61
2023/03/02 05:50:58;;;;;;;63.07;24.30;;;;;;;-32.90;100.00;95211.78;5117705;22;25411;-63
2023/03/02 05:53:25;;;;;;;59.63;24.50;;;;;;;-32.81;100.00;95213.34;5099478;22;20633;-60
2023/03/02 05:55:52;;;;;;;68.87;26.60;;;;;;;-32.93;100.00;95215.09;5106224;22;21701;-63
2023/03/02 05:58:19;;;;;;;62.07;24.77;;;;;;;-32.95;100.00;95215.94;5087771;22;21908;-63
2023/03/02 06:00:46;;;;;;;68.50;27.30;;;;;;;-33.04;100.00;95221.84;5142236;22;20214;-67
2023/03/02 06:03:14;;;;;;;67.53;26.83;;;;;;;-33.05;100.00;95222.66;5103518;22;20202;-63
2023/03/02 06:05:41;;;;;;;64.40;26.93;;;;;;;-33.02;100.00;95227.56;5103678;22;20203;-63
2023/03/02 06:08:08;;;;;;;65.33;26.70;;;;;;;-33.13;100.00;95232.63;5151342;22;20274;-62
2023/03/02 06:10:35;;;;;;;62.67;25.33;;;;;;;-33.02;100.00;95229.22;5075354;22;20735;-65
2023/03/02 06:13:01;;;;;;;64.37;27.13;;;;;;;-33.08;100.00;95235.06;5078717;22;20203;-63
2023/03/02 06:15:28;;;;;;;74.97;28.53;;;;;;;-33.23;100.00;95232.75;5097600;22;22650;-64
2023/03/02 06:17:57;;;;;;;67.30;27.93;;;;;;;-33.28;100.00;95230.31;5103341;22;20243;-62
2023/03/02 06:20:24;;;;;;;67.07;27.47;;;;;;;-33.18;100.00;95233.53;5084573;22;20224;-61
2023/03/02 06:22:51;;;;;;;63.70;26.60;;;;;;;-33.36;100.00;95237.78;5098220;22;20212;-60
2023/03/02 06:25:22;;;;;;;69.70;27.67;;;;;;;-33.33;100.00;95247.66;5100121;22;20222;-61
2023/03/02 06:27:50;;;;;;;75.50;29.30;;;;;;;-33.28;100.00;95252.56;5086734;22;20206;-63
2023/03/02 06:30:20;;;;;;;70.27;28.70;;;;;;;-33.24;100.00;95254.16;5114722;22;20448;-61
2023/03/02 06:32:46;;;;;;;71.00;27.60;;;;;;;-33.24;100.00;95249.22;5115278;22;20206;-62
2023/03/02 06:35:13;;;;;;;68.43;28.43;;;;;;;-33.30;100.00;95254.22;5112355;22;22202;-60
2023/03/02 06:37:40;;;;;;;76.93;30.37;;;;;;;-33.21;100.00;95259.09;5107478;22;22966;-60
2023/03/02 06:40:10;;;;;;;74.47;29.40;;;;;;;-33.30;100.00;95254.22;5128988;22;20285;-62
2023/03/02 06:42:38;;;;;;;73.50;30.40;;;;;;;-33.23;100.00;95263.25;5107563;22;20797;-63
2023/03/02 06:45:05;;;;;;;83.27;32.50;;;;;;;-33.24;100.00;95263.25;5129957;22;22980;-64
2023/03/02 06:47:32;;;;;;;87.50;31.87;;;;;;;-33.23;100.00;95264.91;5095246;22;20207;-65
2023/03/02 06:49:59;;;;;;;82.23;33.10;;;;;;;-33.24;100.00;95248.41;5095723;22;20206;-62
2023/03/02 06:52:26;;;;;;;86.37;32.53;;;;;;;-33.31;100.00;95260.00;5096146;22;20530;-63
2023/03/02 06:54:53;;;;;;;85.50;32.53;;;;;;;-33.31;100.00;95257.53;5111508;22;20278;-61
2023/03/02 06:57:20;;;;;;;86.47;34.10;;;;;;;-33.35;100.00;95251.00;5115868;23;20769;-61
2023/03/02 06:59:46;;;;;;;84.77;34.20;;;;;;;-33.19;100.00;95261.53;5084135;22;20891;-61
2023/03/02 07:02:13;;;;;;;88.50;34.87;;;;;;;-33.17;100.00;95254.94;5104157;22;20206;-63
2023/03/02 07:04:40;;;;;;;80.07;33.53;;;;;;;-33.23;100.00;95255.81;5084332;22;21709;-67
2023/03/02 07:07:06;;;;;;;80.27;33.10;;;;;;;-33.12;100.00;95260.66;5081223;22;20317;-63
2023/03/02 07:09:33;;;;;;;89.40;34.50;;;;;;;-33.06;100.00;95258.13;5128812;22;22546;-63
2023/03/02 07:12:00;;;;;;;97.90;36.33;;;;;;;-33.04;100.00;95261.44;5146177;22;20210;-61
2023/03/02 07:14:27;;;;;;;95.20;34.47;;;;;;;-33.05;100.00;95259.75;5071541;22;20199;-63
2023/03/02 07:16:56;;;;;;;85.83;35.00;;;;;;;-33.06;100.00;95250.72;5095866;22;20297;-62
2023/03/02 07:19:22;;;;;;;98.87;35.50;;;;;;;-33.14;100.00;95259.88;5098887;22;26076;-64
2023/03/02 07:21:49;;;;;;;95.37;36.77;;;;;;;-33.08;100.00;95242.47;5107374;22;20718;-62
2023/03/02 07:24:16;;;;;;;85.77;34.67;;;;;;;-33.18;100.00;95249.19;5079605;22;20568;-65
2023/03/02 07:26:42;;;;;;;91.40;35.63;;;;;;;-33.25;100.00;95246.78;5079932;22;20207;-63
2023/03/02 07:29:09;;;;;;;86.00;34.13;;;;;;;-33.07;100.00;95256.50;5114819;22;20261;-64
2023/03/02 07:31:35;;;;;;;86.67;33.90;;;;;;;-33.03;100.00;95244.91;5102425;22;20204;-63
2023/03/02 07:34:02;;;;;;;95.33;35.93;;;;;;;-32.93;100.00;95247.28;5100668;22;20563;-64
2023/03/02 07:36:29;;;;;;;80.27;32.77;;;;;;;-32.92;100.00;95246.41;5093891;22;20207;-65
2023/03/02 07:38:56;;;;;;;88.70;34.63;;;;;;;-32.88;100.00;95239.78;5096286;22;21091;-60
2023/03/02 07:41:22;;;;;;;84.17;34.93;;;;;;;-32.88;100.00;95235.66;5084486;22;21251;-66
2023/03/02 07:43:49;;;;;;;82.23;32.73;;;;;;;-32.99;100.00;95239.09;5096450;22;20203;-65
2023/03/02 07:46:16;;;;;;;85.13;33.57;;;;;;;-33.08;100.00;95237.53;5078956;22;20781;-64
2023/03/02 07:48:42;;;;;;;87.73;33.23;;;;;;;-33.08;100.00;95242.47;5076962;22;22587;-62
2023/03/02 07:51:09;;;;;;;79.60;31.60;;;;;;;-33.02;100.00;95244.88;5113500;22;25430;-64
2023/03/02 07:53:35;;;;;;;74.27;31.00;;;;;;;-32.95;100.00;95241.50;5095394;22;20273;-63
2023/03/02 07:56:09;;;;;;;69.87;29.33;;;;;;;-32.77;100.00;95245.47;5089041;22;20219;-64
2023/03/02 07:58:36;;;;;;;81.63;32.00;;;;;;;-32.78;100.00;95240.53;5086774;22;20206;-63
2023/03/02 08:01:03;;;;;;;83.83;33.10;;;;;;;-32.75;100.00;95238.81;5098207;22;20431;-62
2023/03/02 08:03:30;;;;;;;80.07;32.23;;;;;;;-32.78;100.00;95238.84;5081147;22;21259;-66
2023/03/02 08:05:56;;;;;;;77.30;32.27;;;;;;;-32.58;100.00;95246.06;5087653;22;20580;-63
2023/03/02 08:08:23;;;;;;;77.47;30.97;;;;;;;-32.56;100.00;95236.94;5086194;22;21161;-65
2023/03/02 08:10:50;;;;;;;88.80;32.80;;;;;;;-32.59;100.00;95228.75;5081971;22;21340;-63
2023/03/02 08:13:16;;;;;;;87.83;33.93;;;;;;;-32.57;100.00;95232.84;5092608;22;20616;-63
2023/03/02 08:15:43;;;;;;;76.50;30.10;;;;;;;-32.56;100.00;95229.53;5078581;22;20653;-62
2023/03/02 08:18:09;;;;;;;65.53;26.20;;;;;;;-32.50;100.00;95226.97;5084555;22;20203;-63
2023/03/02 08:20:36;;;;;;;65.77;27.47;;;;;;;-32.50;100.00;95229.47;5076131;22;25680;-62
2023/03/02 08:23:03;;;;;;;62.77;27.13;;;;;;;-32.42;100.00;95226.03;5099895;22;20211;-62
2023/03/02 08:25:29;;;;;;;67.97;28.23;;;;;;;-32.36;100.00;95218.53;5079639;22;20282;-63
2023/03/02 08:27:56;;;;;;;71.77;29.60;;;;;;;-32.35;100.00;95235.03;5093403;22;20237;-61
2023/03/02 08:30:22;;;;;;;65.77;26.97;;;;;;;-32.48;100.00;95227.75;5079248;22;20209;-64
2023/03/02 08:32:49;;;;;;;59.13;26.03;;;;;;;-32.51;100.00;95222.88;5115128;22;22308;-63
2023/03/02 08:35:16;;;;;;;69.83;28.20;;;;;;;-32.37;100.00;95225.16;5108657;22;21497;-64
2023/03/02 08:37:42;;;;;;;66.43;27.37;;;;;;;-32.18;100.00;95225.75;5100387;22;25064;-64
2023/03/02 08:40:09;;;;;;;63.97;26.33;;;;;;;-32.12;100.00;95217.41;5099887;22;20407;-63
2023/03/02 08:42:36;;;;;;;64.87;26.67;;;;;;;-32.07;100.00;95223.13;5086017;22;20246;-63
2023/03/02 08:45:03;;;;;;;101.90;41.10;;;;;;;-31.96;100.00;95225.47;5092895;22;21569;-63
2023/03/02 08:47:31;;;;;;;91.77;34.33;;;;;;;-31.92;100.00;95222.88;5090680;22;20245;-65
2023/03/02 08:49:57;;;;;;;79.77;31.13;;;;;;;-31.87;100.00;95230.25;5098697;22;21384;-63
2023/03/02 08:52:24;;;;;;;68.33;28.00;;;;;;;-32.14;100.00;95231.47;5104012;22;20293;-66
2023/03/02 08:54:50;;;;;;;71.43;27.87;;;;;;;-32.45;100.00;95225.25;5086636;22;20204;-65
2023/03/02 08:57:17;;;;;;;68.37;27.67;;;;;;;-32.38;100.00;95230.94;5095078;22;25014;-63
2023/03/02 08:59:46;;;;;;;69.73;27.17;;;;;;;-32.21;100.00;95235.69;5105481;22;20207;-61
2023/03/02 09:02:13;;;;;;;67.47;26.73;;;;;;;-32.25;100.00;95229.16;5107334;22;20215;-63
2023/03/02 09:04:39;;;;;;;59.70;24.63;;;;;;;-32.32;100.00;95233.34;5069555;22;20211;-64
2023/03/02 09:07:06;;;;;;;50.93;21.67;;;;;;;-32.27;100.00;95229.16;5090759;22;20288;-65
2023/03/02 09:09:33;;;;;;;45.47;19.87;;;;;;;-32.15;100.00;95223.22;5095172;22;21431;-65
2023/03/02 09:11:59;;;;;;;45.67;19.00;;;;;;;-32.09;100.00;95233.06;5093880;22;20199;-65
2023/03/02 09:14:26;;;;;;;33.13;14.70;;;;;;;-31.98;100.00;95229.63;5061510;22;20211;-61
2023/03/02 09:16:53;;;;;;;34.17;14.63;;;;;;;-31.95;100.00;95225.44;5089860;22;20282;-62
2023/03/02 09:19:20;;;;;;;43.67;18.13;;;;;;;-32.05;100.00;95229.69;5096139;22;20199;-63
2023/03/02 09:21:46;;;;;;;49.80;20.23;;;;;;;-32.13;100.00;95231.47;5076694;22;20321;-65
2023/03/02 09:24:13;;;;;;;46.13;19.37;;;;;;;-32.39;100.00;95231.78;5086772;22;20251;-62
2023/03/02 09:26:40;;;;;;;44.23;19.93;;;;;;;-32.28;100.00;95236.59;5088621;22;20207;-61
2023/03/02 09:29:06;;;;;;;45.83;17.37;;;;;;;-32.31;100.00;95224.25;5117639;22;20357;-63
2023/03/02 09:31:34;;;;;;;37.83;16.23;;;;;;;-32.41;100.00;95220.28;5087741;22;20211;-63
2023/03/02 09:34:03;;;;;;;39.77;15.50;;;;;;;-32.12;100.00;95222.38;5089864;22;22718;-60
2023/03/02 09:36:31;;;;;;;30.80;15.40;;;;;;;-32.08;100.00;95222.31;5090785;22;20264;-64
2023/03/02 09:38:58;;;;;;;34.37;14.47;;;;;;;-32.05;100.00;95226.41;5090535;22;21181;-64
2023/03/02 09:41:58;;;;;;;36.33;15.50;;;;;;;-31.85;100.00;95233.53;5097535;22;22948;-64
2023/03/02 09:44:34;;;;;;;33.53;14.60;;;;;;;-32.20;100.00;95217.50;5097420;22;20205;-63
2023/03/02 09:47:04;;;;;;;34.53;15.27;;;;;;;-32.26;100.00;95215.91;5098708;22;21468;-65
2023/03/02 09:49:49;;;;;;;32.50;13.73;;;;;;;-32.12;100.00;95212.44;5090412;22;20202;-63
2023/03/02 09:52:18;;;;;;;34.50;13.13;;;;;;;-32.07;100.00;95214.00;5111330;22;21581;-65
2023/03/02 09:54:45;;;;;;;32.03;14.20;;;;;;;-31.85;100.00;95209.56;5090356;22;21725;-63
2023/03/02 09:57:23;;;;;;;32.17;12.63;;;;;;;-31.82;100.00;95199.59;5123310;22;20234;-65
2023/03/02 09:59:57;;;;;;;15.43;7.70;;;;;;;-31.67;98.42;95203.53;5080175;22;22112;-62
2023/03/02 10:02:55;;;;;;;15.83;8.27;;;;;;;-31.63;96.29;95197.66;5103997;22;21192;-67
2023/03/02 10:05:42;;;;;;;23.20;8.60;;;;;;;-31.42;95.79;95200.66;5075359;22;20269;-62
2023/03/02 10:08:20;;;;;;;21.87;8.67;;;;;;;-31.35;94.20;95198.84;5102242;22;20480;-63
2023/03/02 10:10:50;;;;;;;17.60;8.27;;;;;;;-31.14;93.33;95203.44;5125509;22;23649;-65
2023/03/02 10:13:25;;;;;;;17.77;8.10;;;;;;;-30.99;91.73;95197.41;5152690;22;20313;-65
2023/03/02 10:15:57;;;;;;;15.40;7.00;;;;;;;-30.86;90.17;95201.31;5092779;23;20217;-64
2023/03/02 10:18:34;;;;;;;14.10;7.20;;;;;;;-30.85;87.81;95202.97;5102492;22;25249;-61
2023/03/02 10:21:26;;;;;;;17.73;8.27;;;;;;;-30.88;88.91;95193.06;5081634;22;22468;-62
2023/03/02 10:24:41;;;;;;;15.93;7.80;;;;;;;-31.06;87.18;95195.88;5123538;22;20209;-61
2023/03/02 10:27:17;;;;;;;17.20;7.63;;;;;;;-31.24;88.25;95200.31;5076284;22;20203;-64
2023/03/02 10:29:50;;;;;;;17.03;6.77;;;;;;;-30.81;86.97;95194.56;5110272;22;20217;-63
2023/03/02 10:32:25;;;;;;;16.80;7.33;;;;;;;-30.62;85.79;95189.25;5128046;22;21113;-64
2023/03/02 10:34:52;;;;;;;16.93;7.20;;;;;;;-30.61;84.77;95191.72;5135273;22;20602;-64
2023/03/02 10:37:28;;;;;;;15.20;6.83;;;;;;;-30.74;84.62;95193.59;5090626;22;20572;-63
2023/03/02 10:39:58;;;;;;;15.57;7.43;;;;;;;-30.81;85.67;95187.09;5087623;22;20203;-66
2023/03/02 10:42:36;;;;;;;19.03;6.63;;;;;;;-30.58;85.46;95183.38;5089811;22;20212;-64
2023/03/02 10:45:26;;;;;;;14.63;6.17;;;;;;;-30.51;83.65;95190.66;5070666;22;20373;-67
2023/03/02 10:48:08;;;;;;;13.83;6.33;;;;;;;-30.40;83.27;95182.19;5091593;22;20485;-63
2023/03/02 10:50:35;;;;;;;14.03;5.70;;;;;;;-30.68;83.54;95177.78;5093797;22;20208;-66
2023/03/02 10:53:05;;;;;;;13.80;6.47;;;;;;;-30.48;84.72;95169.91;5124814;22;20258;-64
2023/03/02 10:55:33;;;;;;;14.33;6.60;;;;;;;-30.34;83.08;95170.44;5105419;22;23780;-64
2023/03/02 10:58:24;;;;;;;13.67;6.27;;;;;;;-30.59;81.68;95169.28;5107363;22;20209;-62
2023/03/02 11:00:56;;;;;;;19.53;7.23;;;;;;;-30.76;83.26;95165.47;5111870;22;20207;-65
2023/03/02 11:03:23;;;;;;;16.00;7.17;;;;;;;-30.64;83.37;95157.00;5115755;22;20279;-61
2023/03/02 11:05:50;;;;;;;21.10;9.33;;;;;;;-30.73;84.21;95165.44;5088341;22;23591;-63
2023/03/02 11:08:22;;;;;;;14.60;7.53;;;;;;;-30.70;84.22;95153.81;5116856;22;20250;-64
2023/03/02 11:11:02;;;;;;;18.33;8.50;;;;;;;-30.60;83.72;95160.22;5079115;22;23587;-62